sensor_id;sensor_type;location;lat;lon;timestamp;pressure;altitude;pressure_sealevel;temperature;humidity
32873;BME280;19224;52.462;16.898;2023-01-13T00:02:09;99479.95;;;9.19;100.00
32873;BME280;19224;52.462;16.898;2023-01-13T00:04:39;99476.70;;;9.21;100.00
32873;BME280;19224;52.462;16.898;2023-01-13T00:07:10;99480.05;;;9.18;100.00
32873;BME280;19224;52.462;16.898;2023-01-13T00:09:40;99479.73;;;9.15;100.00
32873;BME280;19224;52.462;16.898;2023-01-13T00:12:11;99474.52;;;9.12;100.00
32873;BME280;19224;52.462;16.898;2023-01-13T00:14:41;99476.39;;;9.10;100.00
32873;BME280;19224;52.462;16.898;2023-01-13T00:17:12;99463.78;;;9.12;100.00
32873;BME280;19224;52.462;16.898;2023-01-13T00:19:42;99460.60;;;9.13;100.00
32873;BME280;19224;52.462;16.898;2023-01-13T00:22:13;99461.63;;;9.10;100.00
32873;BME280;19224;52.462;16.898;2023-01-13T00:24:44;99459.11;;;9.07;100.00
32873;BME280;19224;52.462;16.898;2023-01-13T00:27:14;99455.47;;;9.08;100.00
32873;BME280;19224;52.462;16.898;2023-01-13T00:29:44;99451.44;;;9.08;100.00
32873;BME280;19224;52.462;16.898;2023-01-13T00:32:15;99450.88;;;9.10;100.00
32873;BME280;19224;52.462;16.898;2023-01-13T00:34:46;99442.75;;;9.12;100.00
32873;BME280;19224;52.462;16.898;2023-01-13T00:37:16;99450.88;;;9.10;100.00
32873;BME280;19224;52.462;16.898;2023-01-13T00:39:47;99446.78;;;9.12;100.00
32873;BME280;19224;52.462;16.898;2023-01-13T00:42:18;99449.79;;;9.14;100.00
32873;BME280;19224;52.462;16.898;2023-01-13T00:45:07;99438.66;;;9.13;100.00
32873;BME280;19224;52.462;16.898;2023-01-13T00:47:37;99441.97;;;9.10;100.00
32873;BME280;19224;52.462;16.898;2023-01-13T00:50:09;99437.45;;;9.10;100.00
32873;BME280;19224;52.462;16.898;2023-01-13T00:52:39;99433.03;;;9.09;100.00
32873;BME280;19224;52.462;16.898;2023-01-13T00:55:10;99429.00;;;9.09;100.00
32873;BME280;19224;52.462;16.898;2023-01-13T00:57:41;99429.81;;;9.11;100.00
32873;BME280;19224;52.462;16.898;2023-01-13T01:00:12;99427.91;;;9.13;100.00
32873;BME280;19224;52.462;16.898;2023-01-13T01:02:42;99427.91;;;9.13;100.00
32873;BME280;19224;52.462;16.898;2023-01-13T01:05:13;99426.95;;;9.14;100.00
32873;BME280;19224;52.462;16.898;2023-01-13T01:07:44;99419.29;;;9.15;100.00
32873;BME280;19224;52.462;16.898;2023-01-13T01:10:15;99416.11;;;9.16;100.00
32873;BME280;19224;52.462;16.898;2023-01-13T01:12:45;99419.29;;;9.15;100.00
32873;BME280;19224;52.462;16.898;2023-01-13T01:15:17;99414.87;;;9.14;100.00
32873;BME280;19224;52.462;16.898;2023-01-13T01:17:47;99417.00;;;9.16;100.00
32873;BME280;19224;52.462;16.898;2023-01-13T01:20:18;99426.40;;;9.16;100.00
32873;BME280;19224;52.462;16.898;2023-01-13T01:22:49;99408.55;;;9.15;100.00
32873;BME280;19224;52.462;16.898;2023-01-13T01:25:20;99414.31;;;9.16;100.00
32873;BME280;19224;52.462;16.898;2023-01-13T01:27:50;99408.55;;;9.15;100.00
32873;BME280;19224;52.462;16.898;2023-01-13T01:30:21;99407.98;;;9.17;100.00
32873;BME280;19224;52.462;16.898;2023-01-13T01:32:51;99409.50;;;9.14;100.00
32873;BME280;19224;52.462;16.898;2023-01-13T01:35:23;99402.78;;;9.14;100.00
32873;BME280;19224;52.462;16.898;2023-01-13T01:37:53;99407.66;;;9.15;100.00
32873;BME280;19224;52.462;16.898;2023-01-13T01:40:25;99401.13;;;9.12;100.00
32873;BME280;19224;52.462;16.898;2023-01-13T01:42:56;99388.19;;;9.11;100.00
32873;BME280;19224;52.462;16.898;2023-01-13T01:45:44;99388.58;;;9.12;100.00
32873;BME280;19224;52.462;16.898;2023-01-13T01:48:15;99400.73;;;9.11;100.00
32873;BME280;19224;52.462;16.898;2023-01-13T01:50:45;99394.97;;;9.10;100.00
32873;BME280;19224;52.462;16.898;2023-01-13T01:53:18;99392.67;;;9.11;100.00
32873;BME280;19224;52.462;16.898;2023-01-13T01:55:50;99390.94;;;9.10;100.00
32873;BME280;19224;52.462;16.898;2023-01-13T01:58:44;99387.76;;;9.10;100.00
32873;BME280;19224;52.462;16.898;2023-01-13T02:01:13;99382.39;;;9.10;100.00
32873;BME280;19224;52.462;16.898;2023-01-13T02:03:57;99379.70;;;9.10;100.00
32873;BME280;19224;52.462;16.898;2023-01-13T02:06:23;99384.30;;;9.08;100.00
32873;BME280;19224;52.462;16.898;2023-01-13T02:08:54;99378.92;;;9.08;100.00
32873;BME280;19224;52.462;16.898;2023-01-13T02:11:32;99376.73;;;9.08;100.00
32873;BME280;19224;52.462;16.898;2023-01-13T02:14:24;99380.83;;;9.06;100.00
32873;BME280;19224;52.462;16.898;2023-01-13T02:20:37;99368.91;;;9.03;100.00
32873;BME280;19224;52.462;16.898;2023-01-13T02:23:29;99376.02;;;9.04;100.00
32873;BME280;19224;52.462;16.898;2023-01-13T02:27:00;99372.95;;;9.03;100.00
32873;BME280;19224;52.462;16.898;2023-01-13T02:29:52;99366.80;;;9.01;100.00
32873;BME280;19224;52.462;16.898;2023-01-13T02:33:05;99368.59;;;9.01;100.00
32873;BME280;19224;52.462;16.898;2023-01-13T02:35:41;99374.98;;;8.98;100.00
32873;BME280;19224;52.462;16.898;2023-01-13T02:38:12;99359.37;;;8.98;100.00
32873;BME280;19224;52.462;16.898;2023-01-13T02:40:59;99359.83;;;8.97;100.00
32873;BME280;19224;52.462;16.898;2023-01-13T02:43:38;99355.80;;;8.97;100.00
32873;BME280;19224;52.462;16.898;2023-01-13T02:49:05;99354.39;;;8.99;100.00
32873;BME280;19224;52.462;16.898;2023-01-13T02:51:38;99351.38;;;8.96;100.00
32873;BME280;19224;52.462;16.898;2023-01-13T02:54:19;99344.49;;;8.99;100.00
32873;BME280;19224;52.462;16.898;2023-01-13T02:56:51;99353.50;;;8.98;100.00
32873;BME280;19224;52.462;16.898;2023-01-13T02:59:23;99346.97;;;8.95;100.00
32873;BME280;19224;52.462;16.898;2023-01-13T03:01:56;99346.40;;;8.97;100.00
32873;BME280;19224;52.462;16.898;2023-01-13T03:04:52;99339.86;;;8.94;100.00
32873;BME280;19224;52.462;16.898;2023-01-13T03:10:51;99346.40;;;8.97;100.00
32873;BME280;19224;52.462;16.898;2023-01-13T03:22:33;99342.48;;;8.96;100.00
32873;BME280;19224;52.462;16.898;2023-01-13T03:25:21;99342.48;;;8.96;100.00
32873;BME280;19224;52.462;16.898;2023-01-13T03:27:54;99337.39;;;8.98;100.00
32873;BME280;19224;52.462;16.898;2023-01-13T03:33:20;99342.38;;;8.97;100.00
32873;BME280;19224;52.462;16.898;2023-01-13T03:35:54;99342.48;;;8.96;100.00
32873;BME280;19224;52.462;16.898;2023-01-13T03:38:39;99338.27;;;8.99;100.00
32873;BME280;19224;52.462;16.898;2023-01-13T03:41:12;99346.80;;;8.98;100.00
32873;BME280;19224;52.462;16.898;2023-01-13T03:43:49;99343.97;;;9.01;100.00
32873;BME280;19224;52.462;16.898;2023-01-13T03:46:51;99341.56;;;9.04;100.00
32873;BME280;19224;52.462;16.898;2023-01-13T03:49:21;99337.15;;;9.03;100.00
32873;BME280;19224;52.462;16.898;2023-01-13T03:51:57;99339.83;;;9.03;100.00
32873;BME280;19224;52.462;16.898;2023-01-13T03:54:30;99337.47;;;9.05;100.00
32873;BME280;19224;52.462;16.898;2023-01-13T03:57:06;99337.40;;;9.07;100.00
32873;BME280;19224;52.462;16.898;2023-01-13T03:59:40;99340.93;;;9.07;100.00
32873;BME280;19224;52.462;16.898;2023-01-13T04:05:07;99340.76;;;9.10;100.00
32873;BME280;19224;52.462;16.898;2023-01-13T04:08:30;99337.78;;;9.08;100.00
32873;BME280;19224;52.462;16.898;2023-01-13T04:10:30;99350.58;;;9.11;100.00
32873;BME280;19224;52.462;16.898;2023-01-13T04:13:03;99341.57;;;9.12;100.00
32873;BME280;19224;52.462;16.898;2023-01-13T04:15:40;99344.25;;;9.12;100.00
32873;BME280;19224;52.462;16.898;2023-01-13T04:18:24;99338.88;;;9.12;100.00
32873;BME280;19224;52.462;16.898;2023-01-13T04:20:59;99337.75;;;9.16;100.00
32873;BME280;19224;52.462;16.898;2023-01-13T04:23:30;99339.17;;;9.15;100.00
32873;BME280;19224;52.462;16.898;2023-01-13T04:26:01;99334.29;;;9.14;100.00
32873;BME280;19224;52.462;16.898;2023-01-13T04:28:31;99335.14;;;9.15;100.00
32873;BME280;19224;52.462;16.898;2023-01-13T04:31:03;99337.69;;;9.18;100.00
32873;BME280;19224;52.462;16.898;2023-01-13T04:33:34;99327.58;;;9.14;100.00
32873;BME280;19224;52.462;16.898;2023-01-13T04:36:05;99333.91;;;9.13;100.00
32873;BME280;19224;52.462;16.898;2023-01-13T04:38:36;99328.92;;;9.14;100.00
32873;BME280;19224;52.462;16.898;2023-01-13T04:41:07;99320.86;;;9.14;100.00
32873;BME280;19224;52.462;16.898;2023-01-13T04:43:37;99323.72;;;9.11;100.00
32873;BME280;19224;52.462;16.898;2023-01-13T04:46:08;99326.41;;;9.11;100.00
32873;BME280;19224;52.462;16.898;2023-01-13T04:48:38;99324.64;;;9.10;100.00
32873;BME280;19224;52.462;16.898;2023-01-13T04:51:09;99329.55;;;9.11;100.00
32873;BME280;19224;52.462;16.898;2023-01-13T04:53:39;99324.19;;;9.11;100.00
32873;BME280;19224;52.462;16.898;2023-01-13T04:56:10;99312.98;;;9.11;100.00
32873;BME280;19224;52.462;16.898;2023-01-13T04:58:40;99324.50;;;9.13;100.00
32873;BME280;19224;52.462;16.898;2023-01-13T05:01:11;99325.52;;;9.11;100.00
32873;BME280;19224;52.462;16.898;2023-01-13T05:03:41;99325.45;;;9.12;100.00
32873;BME280;19224;52.462;16.898;2023-01-13T05:06:12;99326.87;;;9.11;100.00
32873;BME280;19224;52.462;16.898;2023-01-13T05:08:42;99329.09;;;9.11;100.00
32873;BME280;19224;52.462;16.898;2023-01-13T05:11:13;99332.70;;;9.10;100.00
32873;BME280;19224;52.462;16.898;2023-01-13T05:14:01;99326.87;;;9.11;100.00
32873;BME280;19224;52.462;16.898;2023-01-13T05:16:52;99333.27;;;9.08;100.00
32873;BME280;19224;52.462;16.898;2023-01-13T05:19:35;99336.34;;;9.09;100.00
32873;BME280;19224;52.462;16.898;2023-01-13T05:22:07;99337.68;;;9.09;100.00
32873;BME280;19224;52.462;16.898;2023-01-13T05:24:55;99330.19;;;9.07;100.00
32873;BME280;19224;52.462;16.898;2023-01-13T05:27:44;99330.58;;;9.08;100.00
32873;BME280;19224;52.462;16.898;2023-01-13T05:30:15;99331.92;;;9.08;100.00
32873;BME280;19224;52.462;16.898;2023-01-13T05:32:46;99331.46;;;9.09;100.00
32873;BME280;19224;52.462;16.898;2023-01-13T05:35:17;99332.88;;;9.07;100.00
32873;BME280;19224;52.462;16.898;2023-01-13T05:37:48;99330.97;;;9.09;100.00
32873;BME280;19224;52.462;16.898;2023-01-13T05:40:19;99330.58;;;9.08;100.00
32873;BME280;19224;52.462;16.898;2023-01-13T05:43:14;99332.48;;;9.06;100.00
32873;BME280;19224;52.462;16.898;2023-01-13T05:48:39;99332.02;;;9.07;100.00
32873;BME280;19224;52.462;16.898;2023-01-13T05:51:12;99325.77;;;9.06;100.00
32873;BME280;19224;52.462;16.898;2023-01-13T05:53:42;99327.61;;;9.06;100.00
32873;BME280;19224;52.462;16.898;2023-01-13T05:56:13;99336.91;;;9.07;100.00
32873;BME280;19224;52.462;16.898;2023-01-13T05:58:45;99332.41;;;9.08;100.00
32873;BME280;19224;52.462;16.898;2023-01-13T06:01:15;99335.00;;;9.09;100.00
32873;BME280;19224;52.462;16.898;2023-01-13T06:03:46;99339.34;;;9.12;100.00
32873;BME280;19224;52.462;16.898;2023-01-13T06:06:16;99333.34;;;9.15;100.00
32873;BME280;19224;52.462;16.898;2023-01-13T06:08:47;99337.37;;;9.15;100.00
32873;BME280;19224;52.462;16.898;2023-01-13T06:11:17;99336.41;;;9.16;100.00
32873;BME280;19224;52.462;16.898;2023-01-13T06:13:48;99336.80;;;9.17;100.00
32873;BME280;19224;52.462;16.898;2023-01-13T06:16:18;99332.52;;;9.22;100.00
32873;BME280;19224;52.462;16.898;2023-01-13T06:18:49;99333.41;;;9.22;100.00
32873;BME280;19224;52.462;16.898;2023-01-13T06:21:19;99351.26;;;9.23;100.00
32873;BME280;19224;52.462;16.898;2023-01-13T06:23:50;99338.99;;;9.26;100.00
32873;BME280;19224;52.462;16.898;2023-01-13T06:26:21;99347.44;;;9.27;100.00
32873;BME280;19224;52.462;16.898;2023-01-13T06:28:54;99340.09;;;9.31;100.00
32873;BME280;19224;52.462;16.898;2023-01-13T06:31:24;99341.43;;;9.31;100.00
32873;BME280;19224;52.462;16.898;2023-01-13T06:34:01;99343.94;;;9.34;100.00
32873;BME280;19224;52.462;16.898;2023-01-13T06:36:34;99348.85;;;9.34;100.00
32873;BME280;19224;52.462;16.898;2023-01-13T06:39:07;99350.66;;;9.34;100.00
32873;BME280;19224;52.462;16.898;2023-01-13T06:41:39;99337.86;;;9.30;100.00
32873;BME280;19224;52.462;16.898;2023-01-13T06:44:27;99344.01;;;9.32;100.00
32873;BME280;19224;52.462;16.898;2023-01-13T06:46:58;99343.48;;;9.34;100.00
32873;BME280;19224;52.462;16.898;2023-01-13T06:49:29;99345.35;;;9.32;100.00
32873;BME280;19224;52.462;16.898;2023-01-13T06:51:59;99345.77;;;9.33;100.00
32873;BME280;19224;52.462;16.898;2023-01-13T06:54:30;99347.66;;;9.31;100.00
32873;BME280;19224;52.462;16.898;2023-01-13T06:57:01;99340.55;;;9.30;100.00
32873;BME280;19224;52.462;16.898;2023-01-13T06:59:31;99348.22;;;9.29;100.00
32873;BME280;19224;52.462;16.898;2023-01-13T07:02:05;99346.09;;;9.27;100.00
32873;BME280;19224;52.462;16.898;2023-01-13T07:04:35;99347.44;;;9.27;100.00
32873;BME280;19224;52.462;16.898;2023-01-13T07:07:06;99347.23;;;9.23;100.00
32873;BME280;19224;52.462;16.898;2023-01-13T07:09:37;99348.96;;;9.24;100.00
32873;BME280;19224;52.462;16.898;2023-01-13T07:12:08;99353.77;;;9.26;100.00
32873;BME280;19224;52.462;16.898;2023-01-13T07:14:38;99351.26;;;9.23;100.00
32873;BME280;19224;52.462;16.898;2023-01-13T07:17:26;99357.23;;;9.28;100.00
32873;BME280;19224;52.462;16.898;2023-01-13T07:19:57;99353.20;;;9.28;100.00
32873;BME280;19224;52.462;16.898;2023-01-13T07:22:28;99362.14;;;9.29;100.00
32873;BME280;19224;52.462;16.898;2023-01-13T07:24:58;99362.14;;;9.29;100.00
32873;BME280;19224;52.462;16.898;2023-01-13T07:27:29;99365.69;;;9.29;100.00
32873;BME280;19224;52.462;16.898;2023-01-13T07:29:59;99368.19;;;9.32;100.00
32873;BME280;19224;52.462;16.898;2023-01-13T07:32:32;99368.05;;;9.35;100.00
32873;BME280;19224;52.462;16.898;2023-01-13T07:35:03;99369.28;;;9.37;100.00
32873;BME280;19224;52.462;16.898;2023-01-13T07:37:36;99359.81;;;9.38;100.00
32873;BME280;19224;52.462;16.898;2023-01-13T07:40:09;99366.92;;;9.39;100.00
32873;BME280;19224;52.462;16.898;2023-01-13T07:42:40;99382.58;;;9.40;100.00
32873;BME280;19224;52.462;16.898;2023-01-13T07:45:28;99376.71;;;9.40;100.00
32873;BME280;19224;52.462;16.898;2023-01-13T07:47:59;99379.79;;;9.41;100.00
32873;BME280;19224;52.462;16.898;2023-01-13T07:50:29;99388.95;;;9.45;100.00
32873;BME280;19224;52.462;16.898;2023-01-13T07:53:01;99388.09;;;9.45;100.00
32873;BME280;19224;52.462;16.898;2023-01-13T07:55:31;99388.17;;;9.43;100.00
32873;BME280;19224;52.462;16.898;2023-01-13T07:58:02;99382.94;;;9.49;100.00
32873;BME280;19224;52.462;16.898;2023-01-13T08:00:32;99380.81;;;9.47;100.00
32873;BME280;19224;52.462;16.898;2023-01-13T08:03:03;99391.95;;;9.48;100.00
32873;BME280;19224;52.462;16.898;2023-01-13T08:05:35;99383.32;;;9.50;100.00
32873;BME280;19224;52.462;16.898;2023-01-13T08:08:06;99380.45;;;9.53;100.00
32873;BME280;19224;52.462;16.898;2023-01-13T08:10:36;99383.53;;;9.54;100.00
32873;BME280;19224;52.462;16.898;2023-01-13T08:13:17;99388.38;;;9.56;100.00
32873;BME280;19224;52.462;16.898;2023-01-13T08:15:51;99396.52;;;9.54;100.00
32873;BME280;19224;52.462;16.898;2023-01-13T08:18:22;99400.62;;;9.53;100.00
32873;BME280;19224;52.462;16.898;2023-01-13T08:20:53;99394.28;;;9.54;100.00
32873;BME280;19224;52.462;16.898;2023-01-13T08:23:23;99396.34;;;9.57;100.00
32873;BME280;19224;52.462;16.898;2023-01-13T08:25:54;99405.10;;;9.61;100.00
32873;BME280;19224;52.462;16.898;2023-01-13T08:28:26;99401.78;;;9.64;100.00
32873;BME280;19224;52.462;16.898;2023-01-13T08:31:02;99399.80;;;9.68;100.00
32873;BME280;19224;52.462;16.898;2023-01-13T08:33:34;99400.95;;;9.71;100.00
32873;BME280;19224;52.462;16.898;2023-01-13T08:36:26;99404.42;;;9.73;100.00
32873;BME280;19224;52.462;16.898;2023-01-13T08:38:57;99401.02;;;9.78;100.00
32873;BME280;19224;52.462;16.898;2023-01-13T08:41:27;99409.09;;;9.78;100.00
32873;BME280;19224;52.462;16.898;2023-01-13T08:44:15;99401.16;;;9.75;100.00
32873;BME280;19224;52.462;16.898;2023-01-13T08:46:45;99406.08;;;9.75;100.00
32873;BME280;19224;52.462;16.898;2023-01-13T08:49:16;99408.27;;;9.76;100.00
32873;BME280;19224;52.462;16.898;2023-01-13T08:51:47;99412.55;;;9.80;100.00
32873;BME280;19224;52.462;16.898;2023-01-13T08:54:19;99406.61;;;9.82;100.00
32873;BME280;19224;52.462;16.898;2023-01-13T08:56:49;99405.47;;;9.86;100.00
32873;BME280;19224;52.462;16.898;2023-01-13T08:59:20;99406.24;;;9.88;100.00
32873;BME280;19224;52.462;16.898;2023-01-13T09:01:51;99410.70;;;9.89;100.00
32873;BME280;19224;52.462;16.898;2023-01-13T09:04:25;99412.64;;;9.94;100.00
32873;BME280;19224;52.462;16.898;2023-01-13T09:06:56;99404.49;;;9.95;100.00
32873;BME280;19224;52.462;16.898;2023-01-13T09:09:27;99412.70;;;10.01;100.00
32873;BME280;19224;52.462;16.898;2023-01-13T09:11:57;99414.04;;;10.01;100.00
32873;BME280;19224;52.462;16.898;2023-01-13T09:14:45;99413.50;;;10.03;100.00
32873;BME280;19224;52.462;16.898;2023-01-13T09:17:16;99408.90;;;10.05;100.00
32873;BME280;19224;52.462;16.898;2023-01-13T09:19:46;99412.94;;;10.05;100.00
32873;BME280;19224;52.462;16.898;2023-01-13T09:22:18;99405.64;;;10.07;100.00
32873;BME280;19224;52.462;16.898;2023-01-13T09:24:49;99405.17;;;10.07;100.00
32873;BME280;19224;52.462;16.898;2023-01-13T09:27:20;99409.23;;;10.14;100.00
32873;BME280;19224;52.462;16.898;2023-01-13T09:29:51;99407.81;;;10.16;100.00
32873;BME280;19224;52.462;16.898;2023-01-13T09:32:22;99411.09;;;10.21;100.00
32873;BME280;19224;52.462;16.898;2023-01-13T09:34:52;99401.72;;;10.28;100.00
32873;BME280;19224;52.462;16.898;2023-01-13T09:37:35;99404.84;;;10.36;100.00
32873;BME280;19224;52.462;16.898;2023-01-13T09:40:18;99404.86;;;10.43;100.00
32873;BME280;19224;52.462;16.898;2023-01-13T09:42:57;99403.24;;;10.47;100.00
32873;BME280;19224;52.462;16.898;2023-01-13T09:45:56;99403.55;;;10.50;100.00
32873;BME280;19224;52.462;16.898;2023-01-13T09:48:36;99406.24;;;10.50;100.00
32873;BME280;19224;52.462;16.898;2023-01-13T09:51:18;99404.70;;;10.46;100.00
32873;BME280;19224;52.462;16.898;2023-01-13T09:54:00;99403.52;;;10.43;100.00
32873;BME280;19224;52.462;16.898;2023-01-13T09:56:30;99395.55;;;10.41;100.00
32873;BME280;19224;52.462;16.898;2023-01-13T09:59:01;99396.31;;;10.43;100.00
32873;BME280;19224;52.462;16.898;2023-01-13T10:01:53;99391.97;;;10.41;100.00
32873;BME280;19224;52.462;16.898;2023-01-13T10:04:22;99388.36;;;10.49;100.00
32873;BME280;19224;52.462;16.898;2023-01-13T10:06:56;99386.17;;;10.55;100.00
32873;BME280;19224;52.462;16.898;2023-01-13T10:09:53;99381.67;;;10.56;100.00
32873;BME280;19224;52.462;16.898;2023-01-13T10:12:25;99384.94;;;10.61;100.00
32873;BME280;19224;52.462;16.898;2023-01-13T10:15:16;99384.75;;;10.64;100.00
32873;BME280;19224;52.462;16.898;2023-01-13T10:23:59;99381.59;;;10.64;100.00
32873;BME280;19224;52.462;16.898;2023-01-13T10:26:59;99386.29;;;10.61;100.00
32873;BME280;19224;52.462;16.898;2023-01-13T10:29:30;99383.63;;;10.68;100.00
32873;BME280;19224;52.462;16.898;2023-01-13T10:32:00;99386.63;;;10.77;100.00
32873;BME280;19224;52.462;16.898;2023-01-13T10:34:31;99385.28;;;10.77;100.00
32873;BME280;19224;52.462;16.898;2023-01-13T10:37:05;99388.01;;;10.84;100.00
32873;BME280;19224;52.462;16.898;2023-01-13T10:39:45;99387.89;;;10.86;100.00
32873;BME280;19224;52.462;16.898;2023-01-13T10:42:20;99383.66;;;10.82;100.00
32873;BME280;19224;52.462;16.898;2023-01-13T10:45:02;99389.05;;;10.82;100.00
32873;BME280;19224;52.462;16.898;2023-01-13T10:47:36;99389.98;;;10.74;100.00
32873;BME280;19224;52.462;16.898;2023-01-13T10:53:08;99375.94;;;10.76;100.00
32873;BME280;19224;52.462;16.898;2023-01-13T10:55:35;99377.51;;;10.80;100.00
32873;BME280;19224;52.462;16.898;2023-01-13T10:58:20;99379.97;;;10.76;100.00
32873;BME280;19224;52.462;16.898;2023-01-13T11:01:03;99370.39;;;10.79;100.00
32873;BME280;19224;52.462;16.898;2023-01-13T11:03:38;99378.82;;;10.73;100.00
32873;BME280;19224;52.462;16.898;2023-01-13T11:06:24;99379.20;;;10.67;100.00
32873;BME280;19224;52.462;16.898;2023-01-13T11:08:53;99379.94;;;10.62;100.00
32873;BME280;19224;52.462;16.898;2023-01-13T11:11:43;99377.91;;;10.58;100.00
32873;BME280;19224;52.462;16.898;2023-01-13T11:14:35;99375.87;;;10.55;100.00
32873;BME280;19224;52.462;16.898;2023-01-13T11:20:23;99373.83;;;10.44;100.00
32873;BME280;19224;52.462;16.898;2023-01-13T11:23:03;99370.05;;;10.40;100.00
32873;BME280;19224;52.462;16.898;2023-01-13T11:25:40;99371.78;;;10.41;100.00
32873;BME280;19224;52.462;16.898;2023-01-13T11:28:52;99363.98;;;10.36;100.00
32873;BME280;19224;52.462;16.898;2023-01-13T11:31:37;99363.91;;;10.38;100.00
32873;BME280;19224;52.462;16.898;2023-01-13T11:36:54;99361.40;;;10.35;100.00
32873;BME280;19224;52.462;16.898;2023-01-13T11:40:00;99359.25;;;10.33;100.00
32873;BME280;19224;52.462;16.898;2023-01-13T11:42:59;99362.13;;;10.30;100.00
32873;BME280;19224;52.462;16.898;2023-01-13T11:45:42;99367.31;;;10.26;100.00
32873;BME280;19224;52.462;16.898;2023-01-13T11:48:19;99361.16;;;10.24;100.00
32873;BME280;19224;52.462;16.898;2023-01-13T11:51:19;99371.30;;;10.19;100.00
32873;BME280;19224;52.462;16.898;2023-01-13T12:02:52;99368.80;;;10.16;100.00
32873;BME280;19224;52.462;16.898;2023-01-13T12:05:43;99375.14;;;10.15;100.00
32873;BME280;19224;52.462;16.898;2023-01-13T12:11:04;99372.40;;;10.08;100.00
32873;BME280;19224;52.462;16.898;2023-01-13T12:13:55;99377.66;;;10.02;100.00
32873;BME280;19224;52.462;16.898;2023-01-13T12:16:28;99382.19;;;10.02;100.00
32873;BME280;19224;52.462;16.898;2023-01-13T12:19:28;99384.22;;;9.97;100.00
32873;BME280;19224;52.462;16.898;2023-01-13T12:22:19;99381.45;;;9.98;100.00
32873;BME280;19224;52.462;16.898;2023-01-13T12:25:19;99385.48;;;9.98;100.00
32873;BME280;19224;52.462;16.898;2023-01-13T12:30:39;99374.59;;;9.93;100.00
32873;BME280;19224;52.462;16.898;2023-01-13T12:39:42;99392.92;;;9.93;100.00
32873;BME280;19224;52.462;16.898;2023-01-13T12:42:18;99398.73;;;9.94;100.00
32873;BME280;19224;52.462;16.898;2023-01-13T12:47:47;99385.95;;;9.98;100.00
32873;BME280;19224;52.462;16.898;2023-01-13T12:53:46;99376.45;;;9.99;100.00
32873;BME280;19224;52.462;16.898;2023-01-13T12:55:34;99383.64;;;9.99;100.00
32873;BME280;19224;52.462;16.898;2023-01-13T13:03:29;99382.57;;;10.03;100.00
32873;BME280;19224;52.462;16.898;2023-01-13T13:06:21;99370.47;;;10.03;100.00
32873;BME280;19224;52.462;16.898;2023-01-13T13:09:45;99378.42;;;10.04;100.00
32873;BME280;19224;52.462;16.898;2023-01-13T13:11:46;99373.69;;;10.01;100.00
32873;BME280;19224;52.462;16.898;2023-01-13T13:20:01;99317.75;;;10.07;100.00
32873;BME280;19224;52.462;16.898;2023-01-13T13:22:42;99326.20;;;10.08;100.00
32873;BME280;19224;52.462;16.898;2023-01-13T13:25:24;99312.94;;;10.05;100.00
32873;BME280;19224;52.462;16.898;2023-01-13T13:28:04;99314.10;;;10.08;100.00
32873;BME280;19224;52.462;16.898;2023-01-13T13:30:38;99313.60;;;10.09;100.00
32873;BME280;19224;52.462;16.898;2023-01-13T13:36:28;99316.87;;;10.07;100.00
32873;BME280;19224;52.462;16.898;2023-01-13T13:39:22;99316.79;;;10.08;100.00
32873;BME280;19224;52.462;16.898;2023-01-13T13:42:26;99322.55;;;10.09;100.00
32873;BME280;19224;52.462;16.898;2023-01-13T13:45:21;99329.73;;;10.02;100.00
32873;BME280;19224;52.462;16.898;2023-01-13T13:48:28;99341.56;;;9.98;100.00
32873;BME280;19224;52.462;16.898;2023-01-13T13:51:52;99346.44;;;9.91;100.00
32873;BME280;19224;52.462;16.898;2023-01-13T13:53:41;99347.31;;;9.92;100.00
32873;BME280;19224;52.462;16.898;2023-01-13T13:56:23;99354.77;;;9.87;100.00
32873;BME280;19224;52.462;16.898;2023-01-13T13:58:55;99367.82;;;9.86;100.00
32873;BME280;19224;52.462;16.898;2023-01-13T14:01:35;99381.06;;;9.82;100.00
32873;BME280;19224;52.462;16.898;2023-01-13T14:04:21;99385.03;;;9.75;100.00
32873;BME280;19224;52.462;16.898;2023-01-13T14:07:00;99390.77;;;9.69;100.00
32873;BME280;19224;52.462;16.898;2023-01-13T14:09:47;99391.87;;;9.65;100.00
32873;BME280;19224;52.462;16.898;2023-01-13T14:12:18;99409.59;;;9.60;100.00
32873;BME280;19224;52.462;16.898;2023-01-13T14:14:50;99412.56;;;9.56;100.00
32873;BME280;19224;52.462;16.898;2023-01-13T14:17:28;99408.53;;;9.56;100.00
32873;BME280;19224;52.462;16.898;2023-01-13T14:20:06;99410.91;;;9.53;100.00
32873;BME280;19224;52.462;16.898;2023-01-13T14:22:37;99412.64;;;9.54;100.00
32873;BME280;19224;52.462;16.898;2023-01-13T14:25:36;99410.02;;;9.53;100.00
32873;BME280;19224;52.462;16.898;2023-01-13T14:28:28;99417.70;;;9.52;100.00
32873;BME280;19224;52.462;16.898;2023-01-13T14:31:05;99421.27;;;9.52;100.00
32873;BME280;19224;52.462;16.898;2023-01-13T14:33:51;99421.83;;;9.50;100.00
32873;BME280;19224;52.462;16.898;2023-01-13T14:36:38;99415.57;;;9.50;100.00
32873;BME280;19224;52.462;16.898;2023-01-13T14:41:46;99405.59;;;9.52;100.00
32873;BME280;19224;52.462;16.898;2023-01-13T14:44:26;99416.35;;;9.52;100.00
32873;BME280;19224;52.462;16.898;2023-01-13T14:47:00;99424.41;;;9.52;100.00
32873;BME280;19224;52.462;16.898;2023-01-13T14:49:39;99430.57;;;9.54;100.00
32873;BME280;19224;52.462;16.898;2023-01-13T14:52:20;99439.59;;;9.53;100.00
32873;BME280;19224;52.462;16.898;2023-01-13T14:57:32;99437.07;;;9.50;100.00
32873;BME280;19224;52.462;16.898;2023-01-13T15:00:22;99451.47;;;9.49;100.00
32873;BME280;19224;52.462;16.898;2023-01-13T15:02:59;99434.39;;;9.50;100.00
32873;BME280;19224;52.462;16.898;2023-01-13T15:05:35;99432.83;;;9.46;100.00